sensor_id;sensor_type;location;lat;lon;timestamp;temperature;humidity
30594;DHT22;33199;47.590;8.300;2023-03-03T00:01:42;7.50;65.20
30594;DHT22;33199;47.590;8.300;2023-03-03T00:04:08;7.50;65.20
30594;DHT22;33199;47.590;8.300;2023-03-03T00:06:33;7.50;65.20
30594;DHT22;33199;47.590;8.300;2023-03-03T00:08:59;7.40;65.30
30594;DHT22;33199;47.590;8.300;2023-03-03T00:11:25;7.50;65.40
30594;DHT22;33199;47.590;8.300;2023-03-03T00:13:53;7.40;65.30
30594;DHT22;33199;47.590;8.300;2023-03-03T00:16:38;7.50;65.30
30594;DHT22;33199;47.590;8.300;2023-03-03T00:19:17;7.40;65.30
30594;DHT22;33199;47.590;8.300;2023-03-03T00:21:48;7.50;65.30
30594;DHT22;33199;47.590;8.300;2023-03-03T00:24:24;7.40;65.30
30594;DHT22;33199;47.590;8.300;2023-03-03T00:27:01;7.50;65.40
30594;DHT22;33199;47.590;8.300;2023-03-03T00:29:40;7.40;65.30
30594;DHT22;33199;47.590;8.300;2023-03-03T00:32:17;7.50;65.30
30594;DHT22;33199;47.590;8.300;2023-03-03T00:34:44;7.40;65.20
30594;DHT22;33199;47.590;8.300;2023-03-03T00:37:31;7.40;65.20
30594;DHT22;33199;47.590;8.300;2023-03-03T00:40:23;7.50;65.30
30594;DHT22;33199;47.590;8.300;2023-03-03T00:42:54;7.50;65.30
30594;DHT22;33199;47.590;8.300;2023-03-03T00:45:50;7.40;65.30
30594;DHT22;33199;47.590;8.300;2023-03-03T00:48:25;7.40;65.30
30594;DHT22;33199;47.590;8.300;2023-03-03T00:50:54;7.50;65.40
30594;DHT22;33199;47.590;8.300;2023-03-03T00:53:24;7.40;65.30
30594;DHT22;33199;47.590;8.300;2023-03-03T00:55:51;7.50;65.40
30594;DHT22;33199;47.590;8.300;2023-03-03T00:58:18;7.40;65.40
30594;DHT22;33199;47.590;8.300;2023-03-03T01:00:49;7.40;65.40
30594;DHT22;33199;47.590;8.300;2023-03-03T01:03:20;7.50;65.40
30594;DHT22;33199;47.590;8.300;2023-03-03T01:05:47;7.50;65.40
30594;DHT22;33199;47.590;8.300;2023-03-03T01:08:13;7.50;65.30
30594;DHT22;33199;47.590;8.300;2023-03-03T01:10:43;7.50;65.30
30594;DHT22;33199;47.590;8.300;2023-03-03T01:13:11;7.50;65.30
30594;DHT22;33199;47.590;8.300;2023-03-03T01:15:38;7.40;65.30
30594;DHT22;33199;47.590;8.300;2023-03-03T01:18:04;7.50;65.50
30594;DHT22;33199;47.590;8.300;2023-03-03T01:20:30;7.40;65.30
30594;DHT22;33199;47.590;8.300;2023-03-03T01:22:56;7.40;65.30
30594;DHT22;33199;47.590;8.300;2023-03-03T01:25:21;7.40;66.10
30594;DHT22;33199;47.590;8.300;2023-03-03T01:27:47;7.50;66.20
30594;DHT22;33199;47.590;8.300;2023-03-03T01:30:13;7.50;65.40
30594;DHT22;33199;47.590;8.300;2023-03-03T01:32:38;7.50;65.40
30594;DHT22;33199;47.590;8.300;2023-03-03T01:35:04;7.50;65.40
30594;DHT22;33199;47.590;8.300;2023-03-03T01:37:30;7.40;65.30
30594;DHT22;33199;47.590;8.300;2023-03-03T01:39:56;7.50;65.40
30594;DHT22;33199;47.590;8.300;2023-03-03T01:42:22;7.50;65.40
30594;DHT22;33199;47.590;8.300;2023-03-03T01:44:48;7.50;65.40
30594;DHT22;33199;47.590;8.300;2023-03-03T01:47:21;7.40;65.30
30594;DHT22;33199;47.590;8.300;2023-03-03T01:49:54;7.40;65.30
30594;DHT22;33199;47.590;8.300;2023-03-03T01:52:30;7.50;65.40
30594;DHT22;33199;47.590;8.300;2023-03-03T01:55:07;7.40;65.40
30594;DHT22;33199;47.590;8.300;2023-03-03T01:57:39;7.40;65.40
30594;DHT22;33199;47.590;8.300;2023-03-03T02:00:08;7.40;65.40
30594;DHT22;33199;47.590;8.300;2023-03-03T02:02:36;7.40;65.40
30594;DHT22;33199;47.590;8.300;2023-03-03T02:05:04;7.50;65.50
30594;DHT22;33199;47.590;8.300;2023-03-03T02:07:32;7.40;65.50
30594;DHT22;33199;47.590;8.300;2023-03-03T02:10:06;7.50;65.50
30594;DHT22;33199;47.590;8.300;2023-03-03T02:12:42;7.40;65.50
30594;DHT22;33199;47.590;8.300;2023-03-03T02:17:48;7.50;65.50
30594;DHT22;33199;47.590;8.300;2023-03-03T02:21:01;7.50;65.60
30594;DHT22;33199;47.590;8.300;2023-03-03T02:23:15;7.50;65.50
30594;DHT22;33199;47.590;8.300;2023-03-03T02:25:49;7.40;65.40
30594;DHT22;33199;47.590;8.300;2023-03-03T02:28:16;7.40;65.50
30594;DHT22;33199;47.590;8.300;2023-03-03T02:30:43;7.50;65.60
30594;DHT22;33199;47.590;8.300;2023-03-03T02:33:08;7.40;65.50
30594;DHT22;33199;47.590;8.300;2023-03-03T02:35:36;7.40;65.50
30594;DHT22;33199;47.590;8.300;2023-03-03T02:41:20;7.50;65.50
30594;DHT22;33199;47.590;8.300;2023-03-03T02:46:22;7.50;65.60
30594;DHT22;33199;47.590;8.300;2023-03-03T02:48:47;7.40;65.50
30594;DHT22;33199;47.590;8.300;2023-03-03T02:51:14;7.40;65.60
30594;DHT22;33199;47.590;8.300;2023-03-03T02:53:42;7.40;65.60
30594;DHT22;33199;47.590;8.300;2023-03-03T02:56:07;7.40;65.50
30594;DHT22;33199;47.590;8.300;2023-03-03T02:58:34;7.40;65.50
30594;DHT22;33199;47.590;8.300;2023-03-03T03:01:00;7.40;65.50
30594;DHT22;33199;47.590;8.300;2023-03-03T03:03:26;7.40;65.50
30594;DHT22;33199;47.590;8.300;2023-03-03T03:05:53;7.40;65.50
30594;DHT22;33199;47.590;8.300;2023-03-03T03:08:19;7.40;65.50
30594;DHT22;33199;47.590;8.300;2023-03-03T03:10:46;7.40;65.50
30594;DHT22;33199;47.590;8.300;2023-03-03T03:13:12;7.50;65.60
30594;DHT22;33199;47.590;8.300;2023-03-03T03:15:39;7.40;66.20
30594;DHT22;33199;47.590;8.300;2023-03-03T03:18:05;7.40;65.50
30594;DHT22;33199;47.590;8.300;2023-03-03T03:20:36;7.40;65.50
30594;DHT22;33199;47.590;8.300;2023-03-03T03:23:04;7.50;65.60
30594;DHT22;33199;47.590;8.300;2023-03-03T03:25:30;7.50;65.50
30594;DHT22;33199;47.590;8.300;2023-03-03T03:27:56;7.40;65.50
30594;DHT22;33199;47.590;8.300;2023-03-03T03:30:21;7.50;65.50
30594;DHT22;33199;47.590;8.300;2023-03-03T03:32:47;7.40;65.50
30594;DHT22;33199;47.590;8.300;2023-03-03T03:35:13;7.40;65.50
30594;DHT22;33199;47.590;8.300;2023-03-03T03:37:39;7.40;65.60
30594;DHT22;33199;47.590;8.300;2023-03-03T03:40:05;7.40;65.50
30594;DHT22;33199;47.590;8.300;2023-03-03T03:42:31;7.40;65.50
30594;DHT22;33199;47.590;8.300;2023-03-03T03:44:57;7.40;65.50
30594;DHT22;33199;47.590;8.300;2023-03-03T03:47:22;7.40;65.50
30594;DHT22;33199;47.590;8.300;2023-03-03T03:49:48;7.40;65.50
30594;DHT22;33199;47.590;8.300;2023-03-03T03:52:13;7.40;65.50
30594;DHT22;33199;47.590;8.300;2023-03-03T03:54:39;7.40;65.50
30594;DHT22;33199;47.590;8.300;2023-03-03T03:57:05;7.40;65.50
30594;DHT22;33199;47.590;8.300;2023-03-03T03:59:32;7.40;65.50
30594;DHT22;33199;47.590;8.300;2023-03-03T04:01:57;7.40;65.60
30594;DHT22;33199;47.590;8.300;2023-03-03T04:04:23;7.40;65.60
30594;DHT22;33199;47.590;8.300;2023-03-03T04:06:48;7.40;65.60
30594;DHT22;33199;47.590;8.300;2023-03-03T04:09:14;7.50;65.60
30594;DHT22;33199;47.590;8.300;2023-03-03T04:11:40;7.40;65.50
30594;DHT22;33199;47.590;8.300;2023-03-03T04:14:06;7.40;65.50
30594;DHT22;33199;47.590;8.300;2023-03-03T04:16:31;7.40;66.40
30594;DHT22;33199;47.590;8.300;2023-03-03T04:18:57;7.40;65.50
30594;DHT22;33199;47.590;8.300;2023-03-03T04:21:23;7.40;65.50
30594;DHT22;33199;47.590;8.300;2023-03-03T04:23:49;7.40;65.50
30594;DHT22;33199;47.590;8.300;2023-03-03T04:26:15;7.40;65.50
30594;DHT22;33199;47.590;8.300;2023-03-03T04:28:41;7.50;65.60
30594;DHT22;33199;47.590;8.300;2023-03-03T04:31:07;7.50;65.60
30594;DHT22;33199;47.590;8.300;2023-03-03T04:33:32;7.40;66.30
30594;DHT22;33199;47.590;8.300;2023-03-03T04:35:58;7.40;65.60
30594;DHT22;33199;47.590;8.300;2023-03-03T04:38:24;7.50;65.60
30594;DHT22;33199;47.590;8.300;2023-03-03T04:40:50;7.40;65.50
30594;DHT22;33199;47.590;8.300;2023-03-03T04:43:16;7.40;65.50
30594;DHT22;33199;47.590;8.300;2023-03-03T04:45:42;7.40;65.60
30594;DHT22;33199;47.590;8.300;2023-03-03T04:48:08;7.40;65.50
30594;DHT22;33199;47.590;8.300;2023-03-03T04:50:33;7.40;65.50
30594;DHT22;33199;47.590;8.300;2023-03-03T04:52:59;7.40;65.60
30594;DHT22;33199;47.590;8.300;2023-03-03T04:55:25;7.40;65.50
30594;DHT22;33199;47.590;8.300;2023-03-03T04:57:51;7.50;65.80
30594;DHT22;33199;47.590;8.300;2023-03-03T05:00:17;7.40;65.50
30594;DHT22;33199;47.590;8.300;2023-03-03T05:02:42;7.40;65.50
30594;DHT22;33199;47.590;8.300;2023-03-03T05:05:09;7.40;65.70
30594;DHT22;33199;47.590;8.300;2023-03-03T05:07:35;7.40;65.50
30594;DHT22;33199;47.590;8.300;2023-03-03T05:10:01;7.40;65.50
30594;DHT22;33199;47.590;8.300;2023-03-03T05:12:27;7.50;66.20
30594;DHT22;33199;47.590;8.300;2023-03-03T05:14:53;7.40;65.60
30594;DHT22;33199;47.590;8.300;2023-03-03T05:17:18;7.50;65.60
30594;DHT22;33199;47.590;8.300;2023-03-03T05:19:44;7.50;65.60
30594;DHT22;33199;47.590;8.300;2023-03-03T05:22:09;7.40;65.50
30594;DHT22;33199;47.590;8.300;2023-03-03T05:24:35;7.40;65.60
30594;DHT22;33199;47.590;8.300;2023-03-03T05:27:01;7.40;65.50
30594;DHT22;33199;47.590;8.300;2023-03-03T05:29:28;7.40;65.60
30594;DHT22;33199;47.590;8.300;2023-03-03T05:31:56;7.40;65.60
30594;DHT22;33199;47.590;8.300;2023-03-03T05:34:22;7.40;65.60
30594;DHT22;33199;47.590;8.300;2023-03-03T05:36:47;7.40;65.70
30594;DHT22;33199;47.590;8.300;2023-03-03T05:39:13;7.40;66.50
30594;DHT22;33199;47.590;8.300;2023-03-03T05:41:39;7.40;65.70
30594;DHT22;33199;47.590;8.300;2023-03-03T05:44:04;7.40;65.70
30594;DHT22;33199;47.590;8.300;2023-03-03T05:46:30;7.40;65.70
30594;DHT22;33199;47.590;8.300;2023-03-03T05:48:56;7.40;65.70
30594;DHT22;33199;47.590;8.300;2023-03-03T05:51:22;7.40;65.70
30594;DHT22;33199;47.590;8.300;2023-03-03T05:53:47;7.40;65.70
30594;DHT22;33199;47.590;8.300;2023-03-03T05:56:13;7.40;65.70
30594;DHT22;33199;47.590;8.300;2023-03-03T05:58:38;7.40;65.70
30594;DHT22;33199;47.590;8.300;2023-03-03T06:01:04;7.40;64.60
30594;DHT22;33199;47.590;8.300;2023-03-03T06:03:30;7.30;64.70
30594;DHT22;33199;47.590;8.300;2023-03-03T06:05:56;7.30;65.20
30594;DHT22;33199;47.590;8.300;2023-03-03T06:08:22;7.30;65.50
30594;DHT22;33199;47.590;8.300;2023-03-03T06:10:47;7.30;65.70
30594;DHT22;33199;47.590;8.300;2023-03-03T06:13:13;7.30;65.60
30594;DHT22;33199;47.590;8.300;2023-03-03T06:15:39;7.30;65.60
30594;DHT22;33199;47.590;8.300;2023-03-03T06:18:04;7.30;65.60
30594;DHT22;33199;47.590;8.300;2023-03-03T06:20:30;7.30;65.50
30594;DHT22;33199;47.590;8.300;2023-03-03T06:22:56;7.30;65.50
30594;DHT22;33199;47.590;8.300;2023-03-03T06:25:22;7.30;65.50
30594;DHT22;33199;47.590;8.300;2023-03-03T06:27:47;7.30;65.40
30594;DHT22;33199;47.590;8.300;2023-03-03T06:30:13;7.30;65.40
30594;DHT22;33199;47.590;8.300;2023-03-03T06:32:39;7.40;65.50
30594;DHT22;33199;47.590;8.300;2023-03-03T06:35:05;7.40;65.50
30594;DHT22;33199;47.590;8.300;2023-03-03T06:37:31;7.40;65.50
30594;DHT22;33199;47.590;8.300;2023-03-03T06:39:56;7.40;65.60
30594;DHT22;33199;47.590;8.300;2023-03-03T06:42:22;7.30;65.50
30594;DHT22;33199;47.590;8.300;2023-03-03T06:44:49;7.40;65.60
30594;DHT22;33199;47.590;8.300;2023-03-03T06:47:14;7.40;65.60
30594;DHT22;33199;47.590;8.300;2023-03-03T06:49:40;7.40;65.60
30594;DHT22;33199;47.590;8.300;2023-03-03T06:52:23;7.40;65.60
30594;DHT22;33199;47.590;8.300;2023-03-03T06:54:52;7.40;65.50
30594;DHT22;33199;47.590;8.300;2023-03-03T06:57:25;7.40;65.50
30594;DHT22;33199;47.590;8.300;2023-03-03T06:59:53;7.40;65.50
30594;DHT22;33199;47.590;8.300;2023-03-03T07:02:20;7.40;65.60
30594;DHT22;33199;47.590;8.300;2023-03-03T07:04:46;7.40;65.60
30594;DHT22;33199;47.590;8.300;2023-03-03T07:07:21;7.40;65.60
30594;DHT22;33199;47.590;8.300;2023-03-03T07:09:50;7.40;65.50
30594;DHT22;33199;47.590;8.300;2023-03-03T07:12:22;7.40;65.60
30594;DHT22;33199;47.590;8.300;2023-03-03T07:14:51;7.40;65.60
30594;DHT22;33199;47.590;8.300;2023-03-03T07:17:21;7.40;65.60
30594;DHT22;33199;47.590;8.300;2023-03-03T07:19:48;7.40;66.40
30594;DHT22;33199;47.590;8.300;2023-03-03T07:22:16;7.40;65.70
30594;DHT22;33199;47.590;8.300;2023-03-03T07:24:48;7.40;65.70
30594;DHT22;33199;47.590;8.300;2023-03-03T07:27:24;7.40;65.70
30594;DHT22;33199;47.590;8.300;2023-03-03T07:29:52;7.40;65.70
30594;DHT22;33199;47.590;8.300;2023-03-03T07:32:41;7.40;65.70
30594;DHT22;33199;47.590;8.300;2023-03-03T07:40:54;7.40;65.60
30594;DHT22;33199;47.590;8.300;2023-03-03T07:48:40;7.40;65.80
30594;DHT22;33199;47.590;8.300;2023-03-03T07:53:41;7.40;65.80
30594;DHT22;33199;47.590;8.300;2023-03-03T07:56:33;7.40;65.70
30594;DHT22;33199;47.590;8.300;2023-03-03T07:58:59;7.40;65.80
30594;DHT22;33199;47.590;8.300;2023-03-03T08:04:11;7.40;65.70
30594;DHT22;33199;47.590;8.300;2023-03-03T08:06:45;7.40;65.70
30594;DHT22;33199;47.590;8.300;2023-03-03T08:09:43;7.40;65.70
30594;DHT22;33199;47.590;8.300;2023-03-03T08:12:40;7.40;65.70
30594;DHT22;33199;47.590;8.300;2023-03-03T08:15:16;7.40;65.70
30594;DHT22;33199;47.590;8.300;2023-03-03T08:17:43;7.40;65.70
30594;DHT22;33199;47.590;8.300;2023-03-03T08:20:43;7.40;65.70
30594;DHT22;33199;47.590;8.300;2023-03-03T08:23:10;7.40;65.70
30594;DHT22;33199;47.590;8.300;2023-03-03T08:25:36;7.40;65.70
30594;DHT22;33199;47.590;8.300;2023-03-03T08:28:02;7.40;65.70
30594;DHT22;33199;47.590;8.300;2023-03-03T08:30:28;7.40;65.70
30594;DHT22;33199;47.590;8.300;2023-03-03T08:32:53;7.40;65.70
30594;DHT22;33199;47.590;8.300;2023-03-03T08:35:19;7.40;65.70
30594;DHT22;33199;47.590;8.300;2023-03-03T08:37:44;7.40;65.70
30594;DHT22;33199;47.590;8.300;2023-03-03T08:40:10;7.40;65.70
30594;DHT22;33199;47.590;8.300;2023-03-03T08:42:36;7.40;65.70
30594;DHT22;33199;47.590;8.300;2023-03-03T08:45:01;7.40;65.70
30594;DHT22;33199;47.590;8.300;2023-03-03T08:47:27;7.40;65.70
30594;DHT22;33199;47.590;8.300;2023-03-03T08:49:52;7.40;65.70
30594;DHT22;33199;47.590;8.300;2023-03-03T08:52:19;7.40;65.70
30594;DHT22;33199;47.590;8.300;2023-03-03T08:54:44;7.40;65.70
30594;DHT22;33199;47.590;8.300;2023-03-03T08:57:10;7.40;65.70
30594;DHT22;33199;47.590;8.300;2023-03-03T08:59:35;7.40;65.70
30594;DHT22;33199;47.590;8.300;2023-03-03T09:02:04;7.40;65.70
30594;DHT22;33199;47.590;8.300;2023-03-03T09:04:29;7.40;65.70
30594;DHT22;33199;47.590;8.300;2023-03-03T09:06:55;7.40;65.70
30594;DHT22;33199;47.590;8.300;2023-03-03T09:09:21;7.50;65.70
30594;DHT22;33199;47.590;8.300;2023-03-03T09:11:46;7.50;65.60
30594;DHT22;33199;47.590;8.300;2023-03-03T09:14:14;7.40;65.70
30594;DHT22;33199;47.590;8.300;2023-03-03T09:16:49;7.50;65.70
30594;DHT22;33199;47.590;8.300;2023-03-03T09:19:25;7.40;65.70
30594;DHT22;33199;47.590;8.300;2023-03-03T09:21:53;7.50;65.70
30594;DHT22;33199;47.590;8.300;2023-03-03T09:24:30;7.40;65.70
30594;DHT22;33199;47.590;8.300;2023-03-03T09:26:57;7.40;65.70
30594;DHT22;33199;47.590;8.300;2023-03-03T09:29:29;7.50;65.80
30594;DHT22;33199;47.590;8.300;2023-03-03T09:34:42;7.50;65.80
30594;DHT22;33199;47.590;8.300;2023-03-03T09:37:33;7.50;65.70
30594;DHT22;33199;47.590;8.300;2023-03-03T09:40:25;7.40;65.70
30594;DHT22;33199;47.590;8.300;2023-03-03T09:43:11;7.50;65.70
30594;DHT22;33199;47.590;8.300;2023-03-03T09:48:24;7.50;65.70
30594;DHT22;33199;47.590;8.300;2023-03-03T09:58:39;7.50;65.70
30594;DHT22;33199;47.590;8.300;2023-03-03T10:04:14;7.50;65.80
30594;DHT22;33199;47.590;8.300;2023-03-03T10:23:20;7.50;65.80
30594;DHT22;33199;47.590;8.300;2023-03-03T10:28:51;7.50;65.80
30594;DHT22;33199;47.590;8.300;2023-03-03T10:34:18;7.50;65.80
30594;DHT22;33199;47.590;8.300;2023-03-03T10:45:01;7.50;65.80
30594;DHT22;33199;47.590;8.300;2023-03-03T10:47:38;7.50;65.80
30594;DHT22;33199;47.590;8.300;2023-03-03T10:52:42;7.50;65.80
30594;DHT22;33199;47.590;8.300;2023-03-03T10:55:32;7.50;65.80
30594;DHT22;33199;47.590;8.300;2023-03-03T11:09:26;7.60;65.80
30594;DHT22;33199;47.590;8.300;2023-03-03T11:15:02;7.60;65.90
30594;DHT22;33199;47.590;8.300;2023-03-03T11:20:48;7.60;65.80
30594;DHT22;33199;47.590;8.300;2023-03-03T11:26:13;7.60;65.80
30594;DHT22;33199;47.590;8.300;2023-03-03T11:36:56;7.60;65.80
30594;DHT22;33199;47.590;8.300;2023-03-03T11:39:26;7.60;65.80
30594;DHT22;33199;47.590;8.300;2023-03-03T11:42:01;7.60;65.90
30594;DHT22;33199;47.590;8.300;2023-03-03T11:44:33;7.60;65.90
30594;DHT22;33199;47.590;8.300;2023-03-03T11:47:27;7.60;66.00
30594;DHT22;33199;47.590;8.300;2023-03-03T11:52:47;7.60;65.90
30594;DHT22;33199;47.590;8.300;2023-03-03T11:55:32;7.60;65.90
30594;DHT22;33199;47.590;8.300;2023-03-03T12:06:20;7.70;66.00
30594;DHT22;33199;47.590;8.300;2023-03-03T12:11:46;7.70;66.10
30594;DHT22;33199;47.590;8.300;2023-03-03T12:19:43;7.70;66.80
30594;DHT22;33199;47.590;8.300;2023-03-03T12:31:00;7.80;66.10
30594;DHT22;33199;47.590;8.300;2023-03-03T12:33:47;7.80;66.10
30594;DHT22;33199;47.590;8.300;2023-03-03T12:36:31;7.80;66.10
30594;DHT22;33199;47.590;8.300;2023-03-03T12:44:50;7.80;66.20
30594;DHT22;33199;47.590;8.300;2023-03-03T12:47:35;7.80;66.20
30594;DHT22;33199;47.590;8.300;2023-03-03T12:52:51;7.80;66.30
30594;DHT22;33199;47.590;8.300;2023-03-03T13:00:43;7.80;66.20
30594;DHT22;33199;47.590;8.300;2023-03-03T13:03:39;7.80;66.20
30594;DHT22;33199;47.590;8.300;2023-03-03T13:06:32;7.80;66.30
30594;DHT22;33199;47.590;8.300;2023-03-03T13:17:18;7.90;66.40
30594;DHT22;33199;47.590;8.300;2023-03-03T13:19:58;7.90;66.40
30594;DHT22;33199;47.590;8.300;2023-03-03T13:22:47;7.90;66.40
30594;DHT22;33199;47.590;8.300;2023-03-03T13:25:49;7.90;66.30
30594;DHT22;33199;47.590;8.300;2023-03-03T13:28:20;7.90;66.40
30594;DHT22;33199;47.590;8.300;2023-03-03T13:30:49;7.90;66.40
30594;DHT22;33199;47.590;8.300;2023-03-03T13:33:30;7.90;66.40
30594;DHT22;33199;47.590;8.300;2023-03-03T13:35:59;7.90;66.30
30594;DHT22;33199;47.590;8.300;2023-03-03T13:38:31;7.90;66.30
30594;DHT22;33199;47.590;8.300;2023-03-03T13:41:59;7.90;66.40
30594;DHT22;33199;47.590;8.300;2023-03-03T13:49:52;7.90;66.50
30594;DHT22;33199;47.590;8.300;2023-03-03T13:52:22;7.90;66.50
30594;DHT22;33199;47.590;8.300;2023-03-03T14:03:02;8.00;66.60
30594;DHT22;33199;47.590;8.300;2023-03-03T14:10:54;8.00;66.60
30594;DHT22;33199;47.590;8.300;2023-03-03T14:13:56;8.00;66.60
30594;DHT22;33199;47.590;8.300;2023-03-03T14:16:16;8.00;66.60
30594;DHT22;33199;47.590;8.300;2023-03-03T14:21:37;8.00;66.60
30594;DHT22;33199;47.590;8.300;2023-03-03T14:24:16;8.00;66.60
30594;DHT22;33199;47.590;8.300;2023-03-03T14:26:47;8.00;66.60
30594;DHT22;33199;47.590;8.300;2023-03-03T14:29:34;8.00;66.50
30594;DHT22;33199;47.590;8.300;2023-03-03T14:32:01;8.00;66.50
30594;DHT22;33199;47.590;8.300;2023-03-03T14:34:44;8.00;66.50
30594;DHT22;33199;47.590;8.300;2023-03-03T14:37:26;8.00;66.40
30594;DHT22;33199;47.590;8.300;2023-03-03T14:45:35;8.10;67.40
30594;DHT22;33199;47.590;8.300;2023-03-03T14:50:40;8.10;66.60
30594;DHT22;33199;47.590;8.300;2023-03-03T14:53:13;8.10;66.50
30594;DHT22;33199;47.590;8.300;2023-03-03T14:55:42;8.10;66.50
30594;DHT22;33199;47.590;8.300;2023-03-03T15:03:35;8.10;66.40
30594;DHT22;33199;47.590;8.300;2023-03-03T15:06:11;8.10;66.40
30594;DHT22;33199;47.590;8.300;2023-03-03T15:08:41;8.10;66.40
30594;DHT22;33199;47.590;8.300;2023-03-03T15:11:27;8.20;66.50
30594;DHT22;33199;47.590;8.300;2023-03-03T15:14:14;8.10;66.50
30594;DHT22;33199;47.590;8.300;2023-03-03T15:16:41;8.20;66.50
30594;DHT22;33199;47.590;8.300;2023-03-03T15:23:16;8.20;66.50
30594;DHT22;33199;47.590;8.300;2023-03-03T15:25:42;8.20;66.50
30594;DHT22;33199;47.590;8.300;2023-03-03T15:28:51;8.20;66.50
30594;DHT22;33199;47.590;8.300;2023-03-03T15:37:07;8.10;66.60
30594;DHT22;33199;47.590;8.300;2023-03-03T15:39:40;8.20;66.60
30594;DHT22;33199;47.590;8.300;2023-03-03T15:42:49;8.20;66.60
30594;DHT22;33199;47.590;8.300;2023-03-03T15:45:26;8.20;66.50
30594;DHT22;33199;47.590;8.300;2023-03-03T15:48:22;8.20;66.60
30594;DHT22;33199;47.590;8.300;2023-03-03T15:51:12;8.20;67.40
30594;DHT22;33199;47.590;8.300;2023-03-03T15:56:42;8.20;66.70
30594;DHT22;33199;47.590;8.300;2023-03-03T16:02:15;8.20;66.70
30594;DHT22;33199;47.590;8.300;2023-03-03T16:18:45;8.20;66.70
30594;DHT22;33199;47.590;8.300;2023-03-03T16:23:45;8.20;66.70
30594;DHT22;33199;47.590;8.300;2023-03-03T16:26:42;8.20;66.70
30594;DHT22;33199;47.590;8.300;2023-03-03T16:31:52;8.40;66.40
30594;DHT22;33199;47.590;8.300;2023-03-03T16:42:29;8.50;65.80
30594;DHT22;33199;47.590;8.300;2023-03-03T16:47:43;8.60;65.70
30594;DHT22;33199;47.590;8.300;2023-03-03T16:53:18;8.70;65.80
30594;DHT22;33199;47.590;8.300;2023-03-03T17:04:34;8.60;65.80
30594;DHT22;33199;47.590;8.300;2023-03-03T17:16:21;8.50;66.20
30594;DHT22;33199;47.590;8.300;2023-03-03T17:24:52;8.50;66.40
30594;DHT22;33199;47.590;8.300;2023-03-03T17:30:21;8.60;66.40
30594;DHT22;33199;47.590;8.300;2023-03-03T17:35:58;8.60;66.20
30594;DHT22;33199;47.590;8.300;2023-03-03T17:46:05;8.80;65.90
30594;DHT22;33199;47.590;8.300;2023-03-03T17:49:06;8.80;65.90
30594;DHT22;33199;47.590;8.300;2023-03-03T18:16:15;8.90;65.90
30594;DHT22;33199;47.590;8.300;2023-03-03T18:26:51;8.90;65.90
30594;DHT22;33199;47.590;8.300;2023-03-03T18:36:55;9.00;66.00
30594;DHT22;33199;47.590;8.300;2023-03-03T18:42:08;9.00;66.00
30594;DHT22;33199;47.590;8.300;2023-03-03T18:44:34;9.00;66.00
30594;DHT22;33199;47.590;8.300;2023-03-03T18:47:00;9.00;65.90
30594;DHT22;33199;47.590;8.300;2023-03-03T18:50:03;9.00;66.00
30594;DHT22;33199;47.590;8.300;2023-03-03T18:52:33;9.00;65.90
30594;DHT22;33199;47.590;8.300;2023-03-03T18:57:35;9.00;66.00
30594;DHT22;33199;47.590;8.300;2023-03-03T19:00:15;9.00;66.00
30594;DHT22;33199;47.590;8.300;2023-03-03T19:02:51;9.00;66.00
30594;DHT22;33199;47.590;8.300;2023-03-03T19:05:21;9.00;66.00
30594;DHT22;33199;47.590;8.300;2023-03-03T19:07:56;9.00;66.00
30594;DHT22;33199;47.590;8.300;2023-03-03T19:10:53;9.00;66.00
30594;DHT22;33199;47.590;8.300;2023-03-03T19:16:04;9.00;66.00
30594;DHT22;33199;47.590;8.300;2023-03-03T19:18:56;9.00;66.00
30594;DHT22;33199;47.590;8.300;2023-03-03T19:21:34;9.00;66.00
30594;DHT22;33199;47.590;8.300;2023-03-03T19:24:08;9.00;66.00
30594;DHT22;33199;47.590;8.300;2023-03-03T19:29:50;9.00;66.00
30594;DHT22;33199;47.590;8.300;2023-03-03T19:38:10;9.00;66.00
30594;DHT22;33199;47.590;8.300;2023-03-03T19:40:47;9.00;66.00
30594;DHT22;33199;47.590;8.300;2023-03-03T19:48:49;9.00;66.00
30594;DHT22;33199;47.590;8.300;2023-03-03T19:51:23;9.00;66.00
30594;DHT22;33199;47.590;8.300;2023-03-03T19:54:11;9.00;66.00
30594;DHT22;33199;47.590;8.300;2023-03-03T19:56:46;9.00;66.00
30594;DHT22;33199;47.590;8.300;2023-03-03T20:02:46;9.00;66.00
30594;DHT22;33199;47.590;8.300;2023-03-03T20:05:31;9.00;66.20
30594;DHT22;33199;47.590;8.300;2023-03-03T20:08:07;9.00;66.00
30594;DHT22;33199;47.590;8.300;2023-03-03T20:10:40;9.10;66.10
30594;DHT22;33199;47.590;8.300;2023-03-03T20:24:09;9.00;66.00
30594;DHT22;33199;47.590;8.300;2023-03-03T20:27:14;9.00;66.00
30594;DHT22;33199;47.590;8.300;2023-03-03T20:32:29;9.00;66.10
30594;DHT22;33199;47.590;8.300;2023-03-03T20:43:33;9.00;66.00
30594;DHT22;33199;47.590;8.300;2023-03-03T20:46:20;9.00;66.10
30594;DHT22;33199;47.590;8.300;2023-03-03T20:52:16;9.00;66.00
30594;DHT22;33199;47.590;8.300;2023-03-03T20:54:59;9.00;66.10
30594;DHT22;33199;47.590;8.300;2023-03-03T21:11:07;9.00;66.20
30594;DHT22;33199;47.590;8.300;2023-03-03T21:13:40;9.00;66.20
30594;DHT22;33199;47.590;8.300;2023-03-03T21:19:03;9.00;66.20
30594;DHT22;33199;47.590;8.300;2023-03-03T21:21:33;9.00;66.10
30594;DHT22;33199;47.590;8.300;2023-03-03T21:23:58;9.00;66.10
30594;DHT22;33199;47.590;8.300;2023-03-03T21:29:18;9.00;66.10
30594;DHT22;33199;47.590;8.300;2023-03-03T21:31:49;9.00;66.10
30594;DHT22;33199;47.590;8.300;2023-03-03T21:34:27;9.00;66.20
30594;DHT22;33199;47.590;8.300;2023-03-03T21:37:06;9.00;66.20
30594;DHT22;33199;47.590;8.300;2023-03-03T21:39:41;9.00;66.10
30594;DHT22;33199;47.590;8.300;2023-03-03T21:42:27;9.00;66.20
30594;DHT22;33199;47.590;8.300;2023-03-03T21:45:12;8.90;66.10
30594;DHT22;33199;47.590;8.300;2023-03-03T21:47:38;9.00;66.20
30594;DHT22;33199;47.590;8.300;2023-03-03T21:50:04;8.90;66.10
30594;DHT22;33199;47.590;8.300;2023-03-03T21:52:31;9.00;66.20
30594;DHT22;33199;47.590;8.300;2023-03-03T21:54:56;9.00;66.20
30594;DHT22;33199;47.590;8.300;2023-03-03T21:57:22;8.90;66.00
30594;DHT22;33199;47.590;8.300;2023-03-03T21:59:49;8.90;66.00
30594;DHT22;33199;47.590;8.300;2023-03-03T22:02:15;8.90;66.00
30594;DHT22;33199;47.590;8.300;2023-03-03T22:04:40;9.00;66.20
30594;DHT22;33199;47.590;8.300;2023-03-03T22:07:07;8.90;66.00
30594;DHT22;33199;47.590;8.300;2023-03-03T22:09:34;9.00;66.10
30594;DHT22;33199;47.590;8.300;2023-03-03T22:12:00;8.90;66.10
30594;DHT22;33199;47.590;8.300;2023-03-03T22:14:26;8.90;66.10
30594;DHT22;33199;47.590;8.300;2023-03-03T22:16:51;8.90;66.00
30594;DHT22;33199;47.590;8.300;2023-03-03T22:19:17;8.90;66.00
30594;DHT22;33199;47.590;8.300;2023-03-03T22:21:43;8.90;66.00
30594;DHT22;33199;47.590;8.300;2023-03-03T22:24:08;8.90;66.10
30594;DHT22;33199;47.590;8.300;2023-03-03T22:26:36;8.90;66.00
30594;DHT22;33199;47.590;8.300;2023-03-03T22:29:01;9.00;66.20
30594;DHT22;33199;47.590;8.300;2023-03-03T22:31:27;9.00;66.10
30594;DHT22;33199;47.590;8.300;2023-03-03T22:33:53;8.90;65.90
30594;DHT22;33199;47.590;8.300;2023-03-03T22:36:18;8.90;66.00
30594;DHT22;33199;47.590;8.300;2023-03-03T22:38:45;8.90;66.10